sensor_id;sensor_type;location;lat;lon;timestamp;P1;durP1;ratioP1;P2;durP2;ratioP2
22441;SDS011;11388;54.456;9.752;2023-06-04T00:00:08;3.45;;;1.60;;
22441;SDS011;11388;54.456;9.752;2023-06-04T00:02:34;4.53;;;1.80;;
22441;SDS011;11388;54.456;9.752;2023-06-04T00:05:00;3.13;;;1.63;;
22441;SDS011;11388;54.456;9.752;2023-06-04T00:07:29;5.78;;;2.47;;
22441;SDS011;11388;54.456;9.752;2023-06-04T00:09:57;4.82;;;2.20;;
22441;SDS011;11388;54.456;9.752;2023-06-04T00:12:26;4.45;;;1.80;;
22441;SDS011;11388;54.456;9.752;2023-06-04T00:14:54;5.80;;;2.15;;
22441;SDS011;11388;54.456;9.752;2023-06-04T00:17:31;4.45;;;2.05;;
22441;SDS011;11388;54.456;9.752;2023-06-04T00:20:13;4.75;;;2.00;;
22441;SDS011;11388;54.456;9.752;2023-06-04T00:22:42;4.28;;;1.92;;
22441;SDS011;11388;54.456;9.752;2023-06-04T00:25:11;5.25;;;1.85;;
22441;SDS011;11388;54.456;9.752;2023-06-04T00:27:46;6.90;;;2.17;;
22441;SDS011;11388;54.456;9.752;2023-06-04T00:31:07;5.28;;;2.38;;
22441;SDS011;11388;54.456;9.752;2023-06-04T00:33:44;6.00;;;2.08;;
22441;SDS011;11388;54.456;9.752;2023-06-04T00:36:19;4.80;;;2.25;;
22441;SDS011;11388;54.456;9.752;2023-06-04T00:39:17;5.82;;;2.10;;
22441;SDS011;11388;54.456;9.752;2023-06-04T00:42:25;5.68;;;2.30;;
22441;SDS011;11388;54.456;9.752;2023-06-04T00:51:17;5.57;;;2.10;;
22441;SDS011;11388;54.456;9.752;2023-06-04T00:56:46;5.60;;;2.47;;
22441;SDS011;11388;54.456;9.752;2023-06-04T00:59:51;7.00;;;2.33;;
22441;SDS011;11388;54.456;9.752;2023-06-04T01:02:26;8.20;;;2.70;;
22441;SDS011;11388;54.456;9.752;2023-06-04T01:11:36;7.05;;;2.25;;
22441;SDS011;11388;54.456;9.752;2023-06-04T01:14:11;4.53;;;2.15;;
22441;SDS011;11388;54.456;9.752;2023-06-04T01:16:52;7.57;;;2.97;;
22441;SDS011;11388;54.456;9.752;2023-06-04T01:22:33;6.65;;;2.33;;
22441;SDS011;11388;54.456;9.752;2023-06-04T01:25:09;6.57;;;2.83;;
22441;SDS011;11388;54.456;9.752;2023-06-04T01:27:53;7.95;;;2.53;;
22441;SDS011;11388;54.456;9.752;2023-06-04T01:30:24;7.15;;;2.60;;
22441;SDS011;11388;54.456;9.752;2023-06-04T01:33:00;6.93;;;2.35;;
22441;SDS011;11388;54.456;9.752;2023-06-04T01:35:37;6.13;;;2.50;;
22441;SDS011;11388;54.456;9.752;2023-06-04T01:38:04;7.75;;;2.50;;
22441;SDS011;11388;54.456;9.752;2023-06-04T01:40:30;6.25;;;2.17;;
22441;SDS011;11388;54.456;9.752;2023-06-04T01:43:05;6.20;;;2.70;;
22441;SDS011;11388;54.456;9.752;2023-06-04T01:45:45;4.80;;;2.45;;
22441;SDS011;11388;54.456;9.752;2023-06-04T01:48:14;5.05;;;2.33;;
22441;SDS011;11388;54.456;9.752;2023-06-04T01:50:46;7.40;;;2.40;;
22441;SDS011;11388;54.456;9.752;2023-06-04T01:53:17;5.70;;;2.60;;
22441;SDS011;11388;54.456;9.752;2023-06-04T01:55:46;5.82;;;2.40;;
22441;SDS011;11388;54.456;9.752;2023-06-04T01:58:22;4.63;;;2.30;;
22441;SDS011;11388;54.456;9.752;2023-06-04T02:04:01;5.03;;;2.00;;
22441;SDS011;11388;54.456;9.752;2023-06-04T02:06:38;5.22;;;2.30;;
22441;SDS011;11388;54.456;9.752;2023-06-04T02:09:13;7.38;;;2.60;;
22441;SDS011;11388;54.456;9.752;2023-06-04T02:11:39;5.50;;;2.50;;
22441;SDS011;11388;54.456;9.752;2023-06-04T02:14:10;5.03;;;2.05;;
22441;SDS011;11388;54.456;9.752;2023-06-04T02:16:44;6.90;;;2.63;;
22441;SDS011;11388;54.456;9.752;2023-06-04T02:19:23;4.80;;;2.50;;
22441;SDS011;11388;54.456;9.752;2023-06-04T02:21:51;6.25;;;2.50;;
22441;SDS011;11388;54.456;9.752;2023-06-04T02:24:20;6.38;;;2.60;;
22441;SDS011;11388;54.456;9.752;2023-06-04T02:26:48;6.15;;;2.63;;
22441;SDS011;11388;54.456;9.752;2023-06-04T02:29:19;5.95;;;2.60;;
22441;SDS011;11388;54.456;9.752;2023-06-04T02:31:50;6.95;;;2.60;;
22441;SDS011;11388;54.456;9.752;2023-06-04T02:34:18;4.97;;;2.30;;
22441;SDS011;11388;54.456;9.752;2023-06-04T02:36:52;4.68;;;2.53;;
22441;SDS011;11388;54.456;9.752;2023-06-04T02:39:23;6.32;;;2.60;;
22441;SDS011;11388;54.456;9.752;2023-06-04T02:41:55;6.25;;;2.50;;
22441;SDS011;11388;54.456;9.752;2023-06-04T02:44:23;5.07;;;2.45;;
22441;SDS011;11388;54.456;9.752;2023-06-04T02:46:57;4.97;;;2.50;;
22441;SDS011;11388;54.456;9.752;2023-06-04T02:49:23;6.35;;;2.83;;
22441;SDS011;11388;54.456;9.752;2023-06-04T02:51:51;6.55;;;2.75;;
22441;SDS011;11388;54.456;9.752;2023-06-04T02:54:37;7.68;;;2.90;;
22441;SDS011;11388;54.456;9.752;2023-06-04T02:57:44;7.45;;;2.63;;
22441;SDS011;11388;54.456;9.752;2023-06-04T03:00:25;7.75;;;2.83;;
22441;SDS011;11388;54.456;9.752;2023-06-04T03:03:19;5.82;;;2.60;;
22441;SDS011;11388;54.456;9.752;2023-06-04T03:06:03;7.75;;;2.60;;
22441;SDS011;11388;54.456;9.752;2023-06-04T03:15:34;5.70;;;2.30;;
22441;SDS011;11388;54.456;9.752;2023-06-04T03:18:18;4.18;;;2.05;;
22441;SDS011;11388;54.456;9.752;2023-06-04T03:28:10;6.68;;;2.58;;
22441;SDS011;11388;54.456;9.752;2023-06-04T03:30:51;4.68;;;2.17;;
22441;SDS011;11388;54.456;9.752;2023-06-04T03:33:43;5.53;;;2.25;;
22441;SDS011;11388;54.456;9.752;2023-06-04T03:42:59;6.47;;;2.78;;
22441;SDS011;11388;54.456;9.752;2023-06-04T03:45:36;7.97;;;2.63;;
22441;SDS011;11388;54.456;9.752;2023-06-04T03:48:05;7.80;;;2.90;;
22441;SDS011;11388;54.456;9.752;2023-06-04T03:50:37;8.85;;;2.90;;
22441;SDS011;11388;54.456;9.752;2023-06-04T03:53:29;4.82;;;2.60;;
22441;SDS011;11388;54.456;9.752;2023-06-04T04:06:04;10.40;;;3.38;;
22441;SDS011;11388;54.456;9.752;2023-06-04T04:08:37;16.27;;;4.60;;
22441;SDS011;11388;54.456;9.752;2023-06-04T04:17:21;20.38;;;6.20;;
22441;SDS011;11388;54.456;9.752;2023-06-04T04:19:46;18.67;;;6.18;;
22441;SDS011;11388;54.456;9.752;2023-06-04T04:22:39;15.65;;;5.25;;
22441;SDS011;11388;54.456;9.752;2023-06-04T04:29:16;12.00;;;4.18;;
22441;SDS011;11388;54.456;9.752;2023-06-04T04:38:15;12.35;;;4.28;;
22441;SDS011;11388;54.456;9.752;2023-06-04T04:40:50;12.82;;;4.75;;
22441;SDS011;11388;54.456;9.752;2023-06-04T04:43:38;9.35;;;3.65;;
22441;SDS011;11388;54.456;9.752;2023-06-04T04:46:06;10.05;;;3.53;;
22441;SDS011;11388;54.456;9.752;2023-06-04T04:48:32;10.05;;;2.92;;
22441;SDS011;11388;54.456;9.752;2023-06-04T04:50:58;8.80;;;3.05;;
22441;SDS011;11388;54.456;9.752;2023-06-04T04:53:25;8.82;;;2.45;;
22441;SDS011;11388;54.456;9.752;2023-06-04T04:55:52;9.13;;;2.90;;
22441;SDS011;11388;54.456;9.752;2023-06-04T04:58:17;8.65;;;2.90;;
22441;SDS011;11388;54.456;9.752;2023-06-04T05:00:43;9.93;;;2.58;;
22441;SDS011;11388;54.456;9.752;2023-06-04T05:03:09;8.20;;;2.78;;
22441;SDS011;11388;54.456;9.752;2023-06-04T05:05:35;12.63;;;3.03;;
22441;SDS011;11388;54.456;9.752;2023-06-04T05:08:00;7.47;;;2.53;;
22441;SDS011;11388;54.456;9.752;2023-06-04T05:10:26;10.75;;;3.00;;
22441;SDS011;11388;54.456;9.752;2023-06-04T05:12:56;8.13;;;2.55;;
22441;SDS011;11388;54.456;9.752;2023-06-04T05:15:23;8.65;;;2.72;;
22441;SDS011;11388;54.456;9.752;2023-06-04T05:17:49;7.20;;;2.50;;
22441;SDS011;11388;54.456;9.752;2023-06-04T05:20:17;7.25;;;2.45;;
22441;SDS011;11388;54.456;9.752;2023-06-04T05:22:44;11.32;;;3.03;;
22441;SDS011;11388;54.456;9.752;2023-06-04T05:25:10;9.15;;;3.00;;
22441;SDS011;11388;54.456;9.752;2023-06-04T05:27:37;10.23;;;2.70;;
22441;SDS011;11388;54.456;9.752;2023-06-04T05:30:03;8.35;;;2.80;;
22441;SDS011;11388;54.456;9.752;2023-06-04T05:32:29;9.65;;;2.63;;
22441;SDS011;11388;54.456;9.752;2023-06-04T05:34:57;11.07;;;2.75;;
22441;SDS011;11388;54.456;9.752;2023-06-04T05:37:24;8.85;;;2.50;;
22441;SDS011;11388;54.456;9.752;2023-06-04T05:39:54;7.63;;;2.58;;
22441;SDS011;11388;54.456;9.752;2023-06-04T05:42:21;8.82;;;2.63;;
22441;SDS011;11388;54.456;9.752;2023-06-04T05:44:48;9.70;;;2.40;;
22441;SDS011;11388;54.456;9.752;2023-06-04T05:47:14;5.75;;;2.25;;
22441;SDS011;11388;54.456;9.752;2023-06-04T05:49:41;7.43;;;2.60;;
22441;SDS011;11388;54.456;9.752;2023-06-04T05:52:07;8.77;;;2.75;;
22441;SDS011;11388;54.456;9.752;2023-06-04T05:54:33;10.43;;;2.95;;
22441;SDS011;11388;54.456;9.752;2023-06-04T05:56:58;7.72;;;2.70;;
22441;SDS011;11388;54.456;9.752;2023-06-04T05:59:24;6.85;;;2.40;;
22441;SDS011;11388;54.456;9.752;2023-06-04T06:01:50;7.75;;;2.67;;
22441;SDS011;11388;54.456;9.752;2023-06-04T06:04:16;8.77;;;2.88;;
22441;SDS011;11388;54.456;9.752;2023-06-04T06:06:42;9.52;;;2.47;;
22441;SDS011;11388;54.456;9.752;2023-06-04T06:09:09;9.77;;;2.50;;
22441;SDS011;11388;54.456;9.752;2023-06-04T06:11:35;8.55;;;2.30;;
22441;SDS011;11388;54.456;9.752;2023-06-04T06:14:01;7.57;;;2.47;;
22441;SDS011;11388;54.456;9.752;2023-06-04T06:16:27;8.82;;;2.60;;
22441;SDS011;11388;54.456;9.752;2023-06-04T06:18:53;7.15;;;2.53;;
22441;SDS011;11388;54.456;9.752;2023-06-04T06:21:19;9.55;;;2.53;;
22441;SDS011;11388;54.456;9.752;2023-06-04T06:23:45;6.50;;;1.83;;
22441;SDS011;11388;54.456;9.752;2023-06-04T06:26:10;9.43;;;2.20;;
22441;SDS011;11388;54.456;9.752;2023-06-04T06:28:37;9.00;;;2.13;;
22441;SDS011;11388;54.456;9.752;2023-06-04T06:31:02;8.52;;;2.35;;
22441;SDS011;11388;54.456;9.752;2023-06-04T06:33:28;5.47;;;2.20;;
22441;SDS011;11388;54.456;9.752;2023-06-04T06:35:54;6.30;;;2.00;;
22441;SDS011;11388;54.456;9.752;2023-06-04T06:38:20;7.15;;;2.13;;
22441;SDS011;11388;54.456;9.752;2023-06-04T06:40:45;7.43;;;2.28;;
22441;SDS011;11388;54.456;9.752;2023-06-04T06:43:11;11.05;;;2.30;;
22441;SDS011;11388;54.456;9.752;2023-06-04T06:45:37;6.90;;;2.22;;
22441;SDS011;11388;54.456;9.752;2023-06-04T06:48:03;8.15;;;2.33;;
22441;SDS011;11388;54.456;9.752;2023-06-04T06:50:29;7.13;;;2.40;;
22441;SDS011;11388;54.456;9.752;2023-06-04T06:52:55;9.45;;;2.22;;
22441;SDS011;11388;54.456;9.752;2023-06-04T06:55:21;7.78;;;2.22;;
22441;SDS011;11388;54.456;9.752;2023-06-04T06:57:46;6.13;;;2.22;;
22441;SDS011;11388;54.456;9.752;2023-06-04T07:00:12;7.72;;;2.28;;
22441;SDS011;11388;54.456;9.752;2023-06-04T07:02:38;5.40;;;2.13;;
22441;SDS011;11388;54.456;9.752;2023-06-04T07:05:04;9.68;;;2.42;;
22441;SDS011;11388;54.456;9.752;2023-06-04T07:07:30;8.02;;;2.38;;
22441;SDS011;11388;54.456;9.752;2023-06-04T07:09:56;6.80;;;2.13;;
22441;SDS011;11388;54.456;9.752;2023-06-04T07:12:21;6.10;;;2.15;;
22441;SDS011;11388;54.456;9.752;2023-06-04T07:14:47;7.07;;;2.33;;
22441;SDS011;11388;54.456;9.752;2023-06-04T07:17:13;9.65;;;2.65;;
22441;SDS011;11388;54.456;9.752;2023-06-04T07:33:39;7.03;;;1.92;;
22441;SDS011;11388;54.456;9.752;2023-06-04T07:36:13;9.18;;;2.15;;
22441;SDS011;11388;54.456;9.752;2023-06-04T07:38:42;5.95;;;1.80;;
22441;SDS011;11388;54.456;9.752;2023-06-04T07:41:08;8.63;;;2.30;;
22441;SDS011;11388;54.456;9.752;2023-06-04T07:43:34;6.43;;;2.10;;
22441;SDS011;11388;54.456;9.752;2023-06-04T07:46:01;7.32;;;2.15;;
22441;SDS011;11388;54.456;9.752;2023-06-04T07:48:27;7.28;;;2.20;;
22441;SDS011;11388;54.456;9.752;2023-06-04T07:50:59;8.57;;;2.42;;
22441;SDS011;11388;54.456;9.752;2023-06-04T07:53:41;6.50;;;2.03;;
22441;SDS011;11388;54.456;9.752;2023-06-04T07:56:09;6.18;;;2.00;;
22441;SDS011;11388;54.456;9.752;2023-06-04T07:58:35;6.55;;;1.92;;
22441;SDS011;11388;54.456;9.752;2023-06-04T08:01:01;6.57;;;2.03;;
22441;SDS011;11388;54.456;9.752;2023-06-04T08:03:26;6.05;;;1.95;;
22441;SDS011;11388;54.456;9.752;2023-06-04T08:05:52;7.05;;;2.25;;
22441;SDS011;11388;54.456;9.752;2023-06-04T08:08:18;6.22;;;2.10;;
22441;SDS011;11388;54.456;9.752;2023-06-04T08:10:43;8.65;;;2.42;;
22441;SDS011;11388;54.456;9.752;2023-06-04T08:13:09;5.28;;;1.80;;
22441;SDS011;11388;54.456;9.752;2023-06-04T08:15:35;7.43;;;2.15;;
22441;SDS011;11388;54.456;9.752;2023-06-04T08:18:01;7.72;;;2.20;;
22441;SDS011;11388;54.456;9.752;2023-06-04T08:20:27;8.05;;;2.20;;
22441;SDS011;11388;54.456;9.752;2023-06-04T08:22:52;5.45;;;1.90;;
22441;SDS011;11388;54.456;9.752;2023-06-04T08:28:40;5.63;;;2.08;;
22441;SDS011;11388;54.456;9.752;2023-06-04T08:31:06;6.00;;;1.90;;
22441;SDS011;11388;54.456;9.752;2023-06-04T08:33:31;5.70;;;1.90;;
22441;SDS011;11388;54.456;9.752;2023-06-04T08:35:57;5.90;;;1.83;;
22441;SDS011;11388;54.456;9.752;2023-06-04T08:38:23;5.32;;;1.80;;
22441;SDS011;11388;54.456;9.752;2023-06-04T08:40:49;6.43;;;2.05;;
22441;SDS011;11388;54.456;9.752;2023-06-04T08:43:21;7.38;;;1.80;;
22441;SDS011;11388;54.456;9.752;2023-06-04T08:45:48;6.00;;;1.70;;
22441;SDS011;11388;54.456;9.752;2023-06-04T08:48:18;4.65;;;1.60;;
22441;SDS011;11388;54.456;9.752;2023-06-04T08:50:46;6.15;;;1.80;;
22441;SDS011;11388;54.456;9.752;2023-06-04T08:53:14;6.28;;;1.98;;
22441;SDS011;11388;54.456;9.752;2023-06-04T08:55:40;3.90;;;1.63;;
22441;SDS011;11388;54.456;9.752;2023-06-04T08:58:07;4.20;;;1.60;;
22441;SDS011;11388;54.456;9.752;2023-06-04T09:00:37;5.38;;;2.00;;
22441;SDS011;11388;54.456;9.752;2023-06-04T12:27:00;4.93;;;1.55;;
22441;SDS011;11388;54.456;9.752;2023-06-04T12:29:27;4.47;;;1.63;;
22441;SDS011;11388;54.456;9.752;2023-06-04T12:32:00;7.78;;;1.67;;
22441;SDS011;11388;54.456;9.752;2023-06-04T12:34:44;4.72;;;1.52;;
22441;SDS011;11388;54.456;9.752;2023-06-04T13:53:41;3.40;;;1.40;;
22441;SDS011;11388;54.456;9.752;2023-06-04T13:56:10;3.58;;;1.30;;
22441;SDS011;11388;54.456;9.752;2023-06-04T13:58:36;3.55;;;1.13;;
22441;SDS011;11388;54.456;9.752;2023-06-04T14:01:02;4.82;;;1.73;;
22441;SDS011;11388;54.456;9.752;2023-06-04T14:03:28;3.30;;;1.40;;
22441;SDS011;11388;54.456;9.752;2023-06-04T14:05:56;2.65;;;1.40;;
22441;SDS011;11388;54.456;9.752;2023-06-04T14:08:22;2.75;;;1.30;;
22441;SDS011;11388;54.456;9.752;2023-06-04T14:49:39;2.47;;;1.23;;
22441;SDS011;11388;54.456;9.752;2023-06-04T14:52:13;3.83;;;1.30;;
22441;SDS011;11388;54.456;9.752;2023-06-04T15:00:47;2.70;;;1.30;;
22441;SDS011;11388;54.456;9.752;2023-06-04T15:03:23;2.55;;;1.13;;
22441;SDS011;11388;54.456;9.752;2023-06-04T15:05:49;3.63;;;1.30;;
22441;SDS011;11388;54.456;9.752;2023-06-04T15:08:17;2.30;;;1.02;;
22441;SDS011;11388;54.456;9.752;2023-06-04T15:10:46;3.53;;;1.40;;
22441;SDS011;11388;54.456;9.752;2023-06-04T15:13:14;3.05;;;1.30;;
22441;SDS011;11388;54.456;9.752;2023-06-04T15:15:47;2.20;;;1.23;;
22441;SDS011;11388;54.456;9.752;2023-06-04T15:22:02;2.95;;;1.10;;
22441;SDS011;11388;54.456;9.752;2023-06-04T15:24:28;2.92;;;1.30;;
22441;SDS011;11388;54.456;9.752;2023-06-04T15:26:57;2.75;;;1.20;;
22441;SDS011;11388;54.456;9.752;2023-06-04T15:29:26;1.77;;;0.93;;
22441;SDS011;11388;54.456;9.752;2023-06-04T15:37:06;3.67;;;1.20;;
22441;SDS011;11388;54.456;9.752;2023-06-04T15:39:34;2.72;;;1.38;;
22441;SDS011;11388;54.456;9.752;2023-06-04T15:42:00;3.35;;;1.27;;
22441;SDS011;11388;54.456;9.752;2023-06-04T15:44:27;3.58;;;1.10;;
22441;SDS011;11388;54.456;9.752;2023-06-04T15:53:45;3.70;;;1.38;;
22441;SDS011;11388;54.456;9.752;2023-06-04T15:56:14;2.45;;;1.05;;
22441;SDS011;11388;54.456;9.752;2023-06-04T15:59:06;2.80;;;1.17;;
22441;SDS011;11388;54.456;9.752;2023-06-04T16:02:05;2.85;;;1.02;;
22441;SDS011;11388;54.456;9.752;2023-06-04T16:04:34;2.95;;;1.15;;
22441;SDS011;11388;54.456;9.752;2023-06-04T16:07:10;2.58;;;1.25;;
22441;SDS011;11388;54.456;9.752;2023-06-04T16:09:38;3.10;;;1.20;;
22441;SDS011;11388;54.456;9.752;2023-06-04T16:12:06;2.85;;;1.10;;
22441;SDS011;11388;54.456;9.752;2023-06-04T16:14:35;2.60;;;1.27;;
22441;SDS011;11388;54.456;9.752;2023-06-04T16:17:03;2.67;;;1.25;;
22441;SDS011;11388;54.456;9.752;2023-06-04T16:19:33;3.97;;;1.33;;
22441;SDS011;11388;54.456;9.752;2023-06-04T16:22:01;2.88;;;1.30;;
22441;SDS011;11388;54.456;9.752;2023-06-04T16:24:33;3.10;;;1.35;;
22441;SDS011;11388;54.456;9.752;2023-06-04T16:26:58;3.78;;;1.50;;
22441;SDS011;11388;54.456;9.752;2023-06-04T16:29:24;3.47;;;1.20;;
22441;SDS011;11388;54.456;9.752;2023-06-04T16:31:55;3.95;;;1.35;;
22441;SDS011;11388;54.456;9.752;2023-06-04T16:34:20;4.82;;;1.30;;
22441;SDS011;11388;54.456;9.752;2023-06-04T16:36:46;3.00;;;1.23;;
22441;SDS011;11388;54.456;9.752;2023-06-04T16:55:04;4.30;;;1.35;;
22441;SDS011;11388;54.456;9.752;2023-06-04T18:11:20;4.90;;;1.70;;
